Joplin Regional Airport
KJLN : rendu visible

Aérodrome :











RETROUVEZ-NOUS SUR...

 
LOGIN :

S'inscrire | Disclaimer

   EN    FR    IT 

 









Légende :    VFR   VFR Marginal   IFR   IFR Intensif   IFR Très Intensif
Visi : 
Plafond : 
>= 8 km
>= 3000ft
5 à 8 km
1000 à 3000 ft
1500m à 5 km
500 à 1000 ft
800 à 1500m
200 à 500 ft
< 800m
< 200 ft
Symboles :   Orages  Brouillard  Fortes neiges  Fortes précipitations  Vent > 20 kt






- Altitude de l'aérodrome : 981 ft
- Code IATA : JLN


KJLN - Joplin Regional

DERNIER METAR :
  • 221553Z 20014G24KT 10SM CLR 06/M05 A3032 RMK AO2 SLP275 T00611050

METARs EXPIRÉS :
  • 221453Z 19014KT 10SM CLR 04/M06 A3034 RMK AO2 SLP280 T00391056 53002
  • 221353Z 19010KT 10SM CLR 02/M06 A3034 RMK AO2 SLP279 T00221061

TAF KJLN
Valide du 22 à 12h jusqu'au 23 à 12h UTC


221120Z 2212/2312 19005KT P6SM BKN250
FM221700 21009KT P6SM SCT250
FM230000 19005KT P6SM SCT250
FM230900 19005KT P6SM OVC120



MET'MAP, la Météo Aéronautique d'un coup d'oeil ! - Copyright ORBIFLY Décembre 2007 - Disclaimer

ORBIFLY MET'MAP TEAM :

Programmation & Développement : Alexandra Zaïnal
Sur une idée originale de : Baudouin d'Aumeries
Assistance à la programmation : Marc-Olivier Méhu
Soutien technique & logistique : Manuel Goepfert

Contact : metmap@orbifly.com




SOURCES & CREDITS :

   NOAA       Earth
Advisory